createdAt,value
2024-03-01T00:00:14.826Z,26.90
2024-03-01T00:01:15.065Z,25.70
2024-03-01T00:02:15.170Z,26.50
2024-03-01T00:03:15.341Z,26.50
2024-03-01T00:04:15.642Z,28.70
2024-03-01T00:05:15.697Z,26.80
2024-03-01T00:06:15.880Z,27.00
2024-03-01T00:07:16.145Z,27.40
2024-03-01T00:08:16.239Z,28.00
2024-03-01T00:09:16.460Z,28.20
2024-03-01T00:10:16.642Z,28.20
2024-03-01T00:11:16.881Z,28.40
2024-03-01T00:12:16.972Z,27.30
2024-03-01T00:13:17.133Z,26.90
2024-03-01T00:14:17.290Z,28.70
2024-03-01T00:15:17.495Z,28.90
2024-03-01T00:16:17.689Z,28.20
2024-03-01T00:17:17.819Z,27.70
2024-03-01T00:18:18.018Z,27.50
2024-03-01T00:19:18.278Z,28.10
2024-03-01T00:20:18.362Z,28.50
2024-03-01T00:21:18.543Z,29.70
2024-03-01T00:22:18.733Z,28.70
2024-03-01T00:23:18.938Z,29.30
2024-03-01T00:24:19.060Z,28.50
2024-03-01T00:25:19.272Z,29.90
2024-03-01T00:26:19.442Z,28.60
2024-03-01T00:27:19.623Z,29.80
2024-03-01T00:28:19.841Z,30.00
2024-03-01T00:29:20.045Z,29.70
2024-03-01T00:30:20.117Z,29.70
2024-03-01T00:31:20.349Z,28.90
2024-03-01T00:32:20.488Z,30.00
2024-03-01T00:33:20.627Z,30.80
2024-03-01T00:34:20.897Z,30.50
2024-03-01T00:35:21.004Z,28.60
2024-03-01T00:36:21.184Z,30.90
2024-03-01T00:37:21.417Z,29.20
2024-03-01T00:38:21.530Z,31.60
2024-03-01T00:39:21.714Z,29.40
2024-03-01T00:40:21.890Z,30.60
2024-03-01T00:41:22.105Z,30.00
2024-03-01T00:42:22.229Z,30.10
2024-03-01T00:43:22.470Z,29.40
2024-03-01T00:44:22.612Z,31.20
2024-03-01T00:45:22.779Z,29.80
2024-03-01T00:46:23.005Z,30.20
2024-03-01T00:47:23.142Z,30.70
2024-03-01T00:48:23.299Z,31.10
2024-03-01T00:49:23.558Z,31.00
2024-03-01T00:50:23.656Z,30.60
2024-03-01T00:51:23.874Z,30.00
2024-03-01T00:52:24.155Z,28.80
2024-03-01T00:53:24.200Z,31.00
2024-03-01T00:54:24.354Z,29.60
2024-03-01T00:55:24.596Z,29.70
2024-03-01T00:56:24.677Z,30.30
2024-03-01T00:57:24.878Z,28.60
2024-03-01T00:58:25.085Z,29.50
2024-03-01T00:59:25.168Z,29.40
2024-03-01T01:00:25.351Z,30.20
2024-03-01T01:01:25.627Z,30.60
2024-03-01T01:02:39.615Z,30.20
2024-03-01T01:03:26.846Z,29.80
2024-03-01T01:04:26.021Z,31.20
2024-03-01T01:05:26.233Z,30.50
2024-03-01T01:06:26.336Z,31.80
2024-03-01T01:07:26.590Z,31.80
2024-03-01T01:08:26.662Z,30.90
2024-03-01T01:09:26.836Z,32.10
2024-03-01T01:10:27.063Z,31.70
2024-03-01T01:11:27.231Z,31.80
2024-03-01T01:12:27.374Z,33.60
2024-03-01T01:13:27.607Z,31.70
2024-03-01T01:14:27.708Z,31.00
2024-03-01T01:15:27.887Z,32.80
2024-03-01T01:16:28.051Z,32.90
2024-03-01T01:17:28.438Z,33.50
2024-03-01T01:18:28.389Z,33.30
2024-03-01T01:19:28.710Z,33.20
2024-03-01T01:20:28.793Z,32.80
2024-03-01T01:21:28.958Z,34.20
2024-03-01T01:22:29.182Z,34.00
2024-03-01T01:23:29.285Z,34.80
2024-03-01T01:24:29.511Z,35.40
2024-03-01T01:25:29.723Z,34.30
2024-03-01T01:26:29.868Z,35.20
2024-03-01T01:27:30.011Z,35.80
2024-03-01T01:28:30.229Z,34.70
2024-03-01T01:29:30.398Z,35.30
2024-03-01T01:30:30.551Z,36.50
2024-03-01T01:31:30.839Z,36.20
2024-03-01T01:32:30.910Z,35.80
2024-03-01T01:33:31.063Z,35.10
2024-03-01T01:34:31.344Z,36.40
2024-03-01T01:35:31.440Z,37.20
2024-03-01T01:36:31.687Z,35.90
2024-03-01T01:37:31.943Z,37.70
2024-03-01T01:38:32.185Z,36.70
2024-03-01T01:39:32.172Z,38.10
2024-03-01T01:40:32.984Z,36.60
2024-03-01T01:41:32.511Z,36.40
2024-03-01T01:42:32.683Z,33.80
2024-03-01T01:43:32.874Z,35.30
2024-03-01T01:44:33.017Z,35.70
2024-03-01T01:45:33.198Z,38.40
2024-03-01T01:46:33.427Z,37.10
2024-03-01T01:47:33.579Z,38.40
2024-03-01T01:48:33.750Z,37.30
2024-03-01T01:49:34.126Z,37.90
2024-03-01T01:50:34.112Z,37.30
2024-03-01T01:51:34.236Z,37.40
2024-03-01T01:52:34.451Z,37.60
2024-03-01T01:53:34.585Z,40.30
2024-03-01T01:54:34.786Z,38.20
2024-03-01T01:55:34.951Z,37.50
2024-03-01T01:56:35.095Z,38.80
2024-03-01T01:57:35.256Z,38.80
2024-03-01T01:58:35.508Z,37.20
2024-03-01T01:59:35.616Z,38.80
2024-03-01T02:00:35.902Z,37.10
2024-03-01T02:01:36.148Z,40.00
2024-03-01T02:02:36.189Z,38.80
2024-03-01T02:03:36.312Z,41.30
2024-03-01T02:04:36.519Z,42.60
2024-03-01T02:05:36.670Z,38.40
2024-03-01T02:06:36.856Z,39.90
2024-03-01T02:07:37.050Z,40.90
2024-03-01T02:08:37.205Z,41.10
2024-03-01T02:09:37.367Z,43.60
2024-03-01T02:10:37.676Z,42.50
2024-03-01T02:11:37.744Z,42.20
2024-03-01T02:12:37.865Z,43.90
2024-03-01T02:13:38.109Z,41.60
2024-03-01T02:14:38.277Z,43.80
2024-03-01T02:15:38.393Z,44.10
2024-03-01T02:16:38.626Z,43.30
2024-03-01T02:17:38.755Z,42.70
2024-03-01T02:18:38.895Z,44.70
2024-03-01T02:19:39.123Z,45.40
2024-03-01T02:20:39.244Z,43.50
2024-03-01T02:21:39.538Z,44.30
2024-03-01T02:22:39.618Z,44.10
2024-03-01T02:23:39.793Z,45.90
2024-03-01T02:24:39.966Z,45.60
2024-03-01T02:25:40.205Z,46.20
2024-03-01T02:26:40.287Z,46.60
2024-03-01T02:27:40.566Z,45.90
2024-03-01T02:28:40.644Z,45.60
2024-03-01T02:29:40.817Z,45.70
2024-03-01T02:30:41.002Z,47.70
2024-03-01T02:31:41.214Z,44.40
2024-03-01T02:32:41.427Z,46.60
2024-03-01T02:33:41.523Z,48.40
2024-03-01T02:34:41.690Z,45.40
2024-03-01T02:35:41.854Z,47.40
2024-03-01T02:36:42.066Z,47.20
2024-03-01T02:37:42.206Z,45.30
2024-03-01T02:38:42.379Z,47.60
2024-03-01T02:39:42.551Z,49.40
2024-03-01T02:40:42.775Z,47.80
2024-03-01T02:41:42.935Z,48.30
2024-03-01T02:42:43.073Z,46.20
2024-03-01T02:43:43.276Z,47.30
2024-03-01T02:44:43.436Z,47.10
2024-03-01T02:45:43.608Z,46.30
2024-03-01T02:46:43.804Z,46.10
2024-03-01T02:47:43.979Z,48.50
2024-03-01T02:48:44.132Z,46.80
2024-03-01T02:49:44.264Z,48.10
2024-03-01T02:50:44.453Z,47.60
2024-03-01T02:51:44.628Z,46.90
2024-03-01T02:52:44.829Z,48.00
2024-03-01T02:53:45.040Z,46.70
2024-03-01T02:54:45.164Z,44.90
2024-03-01T02:55:45.332Z,48.90
2024-03-01T02:56:45.504Z,47.70
2024-03-01T02:57:45.700Z,46.90
2024-03-01T02:58:45.863Z,49.60
2024-03-01T02:59:46.023Z,47.70
2024-03-01T03:00:46.218Z,49.60
2024-03-01T03:01:46.380Z,48.10
2024-03-01T03:02:46.544Z,46.70
2024-03-01T03:03:46.701Z,50.90
2024-03-01T03:04:46.860Z,49.50
2024-03-01T03:05:47.017Z,48.30
2024-03-01T03:06:49.479Z,50.30
2024-03-01T03:07:47.379Z,49.70
2024-03-01T03:08:47.539Z,47.60
2024-03-01T03:09:47.712Z,49.30
2024-03-01T03:10:48.017Z,49.30
2024-03-01T03:11:48.104Z,48.40
2024-03-01T03:12:48.268Z,51.00
2024-03-01T03:13:48.417Z,50.60
2024-03-01T03:14:48.597Z,48.20
2024-03-01T03:15:48.869Z,50.20
2024-03-01T03:16:49.008Z,49.80
2024-03-01T03:17:49.160Z,48.10
2024-03-01T03:18:49.334Z,50.70
2024-03-01T03:19:49.490Z,50.40
2024-03-01T03:20:49.646Z,50.00
2024-03-01T03:21:49.887Z,49.30
2024-03-01T03:22:50.138Z,47.50
2024-03-01T03:23:50.158Z,49.60
2024-03-01T03:24:50.398Z,50.60
2024-03-01T03:25:50.495Z,48.70
2024-03-01T03:26:50.709Z,45.90
2024-03-01T03:27:50.897Z,49.00
2024-03-01T03:28:51.013Z,49.10
2024-03-01T03:29:51.189Z,49.00
2024-03-01T03:30:51.425Z,51.20
2024-03-01T03:31:51.549Z,49.50
2024-03-01T03:32:51.761Z,49.40
2024-03-01T03:33:51.923Z,47.90
2024-03-01T03:34:52.079Z,48.10
2024-03-01T03:35:52.238Z,48.40
2024-03-01T03:36:52.659Z,50.10
2024-03-01T03:37:52.583Z,48.90
2024-03-01T03:38:52.806Z,49.30
2024-03-01T03:39:52.945Z,51.20
2024-03-01T03:40:53.124Z,48.60
2024-03-01T03:41:53.309Z,48.90
2024-03-01T03:42:53.506Z,50.20
2024-03-01T03:43:53.654Z,49.10
2024-03-01T03:44:53.829Z,48.70
2024-03-01T03:45:54.043Z,50.50
2024-03-01T03:46:54.193Z,48.10
2024-03-01T03:47:54.396Z,47.10
2024-03-01T03:48:54.590Z,48.80
2024-03-01T03:49:54.736Z,49.00
2024-03-01T03:50:54.941Z,48.50
2024-03-01T03:51:55.086Z,47.90
2024-03-01T03:52:55.243Z,50.70
2024-03-01T03:53:55.413Z,49.00
2024-03-01T03:54:55.578Z,49.10
2024-03-01T03:55:55.773Z,48.80
2024-03-01T03:56:55.908Z,47.80
2024-03-01T03:57:56.119Z,47.00
2024-03-01T03:58:56.260Z,50.20
2024-03-01T03:59:56.486Z,48.00
2024-03-01T04:00:56.840Z,46.90
2024-03-01T04:01:56.985Z,50.30
2024-03-01T04:02:56.981Z,49.40
2024-03-01T04:03:57.211Z,47.90
2024-03-01T04:04:57.362Z,50.10
2024-03-01T04:05:57.506Z,50.50
2024-03-01T04:06:57.724Z,50.20
2024-03-01T04:07:57.885Z,49.70
2024-03-01T04:08:58.058Z,48.80
2024-03-01T04:09:58.251Z,49.10
2024-03-01T04:10:58.416Z,48.20
2024-03-01T04:11:58.545Z,49.70
2024-03-01T04:12:58.760Z,50.40
2024-03-01T04:13:58.921Z,47.70
2024-03-01T04:15:00.826Z,51.60
2024-03-01T04:15:59.249Z,48.60
2024-03-01T04:16:59.398Z,51.60
2024-03-01T04:17:59.579Z,49.50
2024-03-01T04:18:59.793Z,51.30
2024-03-01T04:19:59.912Z,49.10
2024-03-01T04:21:00.087Z,48.30
2024-03-01T04:22:00.269Z,50.30
2024-03-01T04:23:00.426Z,50.40
2024-03-01T04:24:00.603Z,50.60
2024-03-01T04:25:00.856Z,51.10
2024-03-01T04:26:00.953Z,49.00
2024-03-01T04:27:01.152Z,50.10
2024-03-01T04:28:01.336Z,49.80
2024-03-01T04:29:01.502Z,49.20
2024-03-01T04:30:01.670Z,52.60
2024-03-01T04:31:01.915Z,49.60
2024-03-01T04:32:01.971Z,50.00
2024-03-01T04:33:02.223Z,49.50
2024-03-01T04:34:02.474Z,49.00
2024-03-01T04:35:02.555Z,50.00
2024-03-01T04:36:02.660Z,49.90
2024-03-01T04:37:02.871Z,51.00
2024-03-01T04:38:03.034Z,51.70
2024-03-01T04:39:03.189Z,50.60
2024-03-01T04:40:03.417Z,47.10
2024-03-01T04:41:03.585Z,51.40
2024-03-01T04:42:03.741Z,51.00
2024-03-01T04:43:03.963Z,51.30
2024-03-01T04:44:04.067Z,49.60
2024-03-01T04:45:04.247Z,52.30
2024-03-01T04:46:04.461Z,53.40
2024-03-01T04:47:04.693Z,49.90
2024-03-01T04:48:04.860Z,52.60
2024-03-01T04:49:04.974Z,54.00
2024-03-01T04:50:05.104Z,52.00
2024-03-01T04:51:05.330Z,53.80
2024-03-01T04:52:05.514Z,53.50
2024-03-01T04:53:05.627Z,52.80
2024-03-01T04:54:05.800Z,52.30
2024-03-01T04:55:06.009Z,54.50
2024-03-01T04:56:06.154Z,51.80
2024-03-01T04:57:06.309Z,54.50
2024-03-01T04:58:06.483Z,54.20
2024-03-01T04:59:06.653Z,54.90
2024-03-01T05:00:06.824Z,53.80
2024-03-01T05:01:07.101Z,54.40
2024-03-01T05:02:07.216Z,55.10
2024-03-01T05:03:07.411Z,54.30
2024-03-01T05:04:07.587Z,54.00
2024-03-01T05:05:07.701Z,53.30
2024-03-01T05:06:07.920Z,52.50
2024-03-01T05:07:08.128Z,53.40
2024-03-01T05:08:08.231Z,53.80
2024-03-01T05:09:08.626Z,52.70
2024-03-01T05:11:08.975Z,54.40
2024-03-01T05:12:08.961Z,53.70
2024-03-01T05:13:09.138Z,55.80
2024-03-01T05:14:09.288Z,53.30
2024-03-01T05:15:09.454Z,56.10
2024-03-01T05:16:09.696Z,55.80
2024-03-01T05:17:09.819Z,56.20
2024-03-01T05:18:10.019Z,55.80
2024-03-01T05:19:10.138Z,55.00
2024-03-01T05:20:10.276Z,57.20
2024-03-01T05:21:10.456Z,55.60
2024-03-01T05:22:10.669Z,55.90
2024-03-01T05:23:10.832Z,54.20
2024-03-01T05:24:10.944Z,54.80
2024-03-01T05:25:11.167Z,53.90
2024-03-01T05:26:11.312Z,54.20
2024-03-01T05:27:11.485Z,53.20
2024-03-01T05:28:11.663Z,59.50
2024-03-01T05:29:11.787Z,56.40
2024-03-01T05:30:11.949Z,57.50
2024-03-01T05:31:20.382Z,55.90
2024-03-01T05:32:13.459Z,55.10
2024-03-01T05:33:12.492Z,55.80
2024-03-01T05:34:12.711Z,56.60
2024-03-01T05:35:12.858Z,54.70
2024-03-01T05:36:13.016Z,54.40
2024-03-01T05:37:13.233Z,54.30
2024-03-01T05:38:13.360Z,54.50
2024-03-01T05:39:13.543Z,56.20
2024-03-01T05:40:13.763Z,53.90
2024-03-01T05:41:13.896Z,53.70
2024-03-01T05:42:14.065Z,57.30
2024-03-01T05:43:14.279Z,56.80
2024-03-01T05:44:14.441Z,55.90
2024-03-01T05:45:14.672Z,55.10
2024-03-01T05:46:14.903Z,53.10
2024-03-01T05:47:14.966Z,54.10
2024-03-01T05:48:15.157Z,55.40
2024-03-01T05:49:15.344Z,54.50
2024-03-01T05:50:15.530Z,53.70
2024-03-01T05:51:15.688Z,52.40
2024-03-01T05:52:15.910Z,52.70
2024-03-01T05:53:17.266Z,55.20
2024-03-01T05:54:16.257Z,54.20
2024-03-01T05:55:16.435Z,55.10
2024-03-01T05:56:16.597Z,53.40
2024-03-01T05:57:16.811Z,52.20
2024-03-01T05:58:16.976Z,52.60
2024-03-01T05:59:17.141Z,53.60
2024-03-01T06:00:17.374Z,52.60
2024-03-01T06:01:17.610Z,53.80
2024-03-01T06:02:17.761Z,53.50
2024-03-01T06:03:17.920Z,55.00
2024-03-01T06:04:18.059Z,52.90
2024-03-01T06:05:18.261Z,55.00
2024-03-01T06:06:18.394Z,52.80
2024-03-01T06:07:18.626Z,53.30
2024-03-01T06:08:18.762Z,54.30
2024-03-01T06:09:18.974Z,53.30
2024-03-01T06:10:19.157Z,53.60
2024-03-01T06:11:19.381Z,52.70
2024-03-01T06:12:19.481Z,54.90
2024-03-01T06:13:19.695Z,52.20
2024-03-01T06:14:19.868Z,52.10
2024-03-01T06:15:20.027Z,54.70
2024-03-01T06:16:20.245Z,55.90
2024-03-01T06:17:20.341Z,55.50
2024-03-01T06:18:20.551Z,55.80
2024-03-01T06:19:20.742Z,55.90
2024-03-01T06:20:20.849Z,54.10
2024-03-01T06:21:21.020Z,53.90
2024-03-01T06:22:21.274Z,52.80
2024-03-01T06:23:21.374Z,53.30
2024-03-01T06:24:21.538Z,51.80
2024-03-01T06:25:21.745Z,52.90
2024-03-01T06:26:21.879Z,49.80
2024-03-01T06:27:22.038Z,49.80
2024-03-01T06:28:22.252Z,49.30
2024-03-01T06:29:22.388Z,51.90
2024-03-01T06:30:22.565Z,48.80
2024-03-01T06:31:22.764Z,47.40
2024-03-01T06:32:22.952Z,49.70
2024-03-01T06:33:23.289Z,49.50
2024-03-01T06:34:23.329Z,50.00
2024-03-01T06:35:23.548Z,48.00
2024-03-01T06:36:23.631Z,50.20
2024-03-01T06:37:23.852Z,50.50
2024-03-01T06:38:24.092Z,50.10
2024-03-01T06:39:24.194Z,50.60
2024-03-01T06:40:24.404Z,47.40
2024-03-01T06:41:24.510Z,47.40
2024-03-01T06:42:24.734Z,48.00
2024-03-01T06:43:24.872Z,47.90
2024-03-01T06:44:25.029Z,47.20
2024-03-01T06:45:25.203Z,48.50
2024-03-01T06:46:25.430Z,47.40
2024-03-01T06:47:25.592Z,45.30
2024-03-01T06:48:25.834Z,45.30
2024-03-01T06:49:25.955Z,44.00
2024-03-01T06:50:26.073Z,45.40
2024-03-01T06:51:26.303Z,46.10
2024-03-01T06:52:26.490Z,45.60
2024-03-01T06:53:28.225Z,45.90
2024-03-01T06:54:26.761Z,47.50
2024-03-01T06:55:26.981Z,46.10
2024-03-01T06:56:27.098Z,45.60
2024-03-01T06:57:27.325Z,46.20
2024-03-01T06:58:27.521Z,47.20
2024-03-01T06:59:27.624Z,45.90
2024-03-01T07:00:27.809Z,47.00
2024-03-01T07:01:28.135Z,44.90
2024-03-01T07:02:28.200Z,44.50
2024-03-01T07:03:28.310Z,43.90
2024-03-01T07:04:28.580Z,45.00
2024-03-01T07:05:28.693Z,44.60
2024-03-01T07:06:28.865Z,45.70
2024-03-01T07:07:29.061Z,42.00
2024-03-01T07:08:29.207Z,44.10
2024-03-01T07:09:29.339Z,43.90
2024-03-01T07:10:29.608Z,43.50
2024-03-01T07:11:29.750Z,44.30
2024-03-01T07:12:29.894Z,57.10
2024-03-01T07:13:30.106Z,43.70
2024-03-01T07:14:30.251Z,43.60
2024-03-01T07:15:30.387Z,41.90
2024-03-01T07:16:30.741Z,40.40
2024-03-01T07:17:30.748Z,42.20
2024-03-01T07:18:30.988Z,41.70
2024-03-01T07:19:31.118Z,41.50
2024-03-01T07:20:31.269Z,40.00
2024-03-01T07:21:31.447Z,39.20
2024-03-01T07:22:31.691Z,42.30
2024-03-01T07:23:31.770Z,41.00
2024-03-01T07:24:32.042Z,41.40
2024-03-01T07:25:32.127Z,40.90
2024-03-01T07:26:32.302Z,41.10
2024-03-01T07:27:32.506Z,40.80
2024-03-01T07:28:32.805Z,40.10
2024-03-01T07:29:32.843Z,40.60
2024-03-01T07:30:33.020Z,39.70
2024-03-01T07:31:33.300Z,40.90
2024-03-01T07:32:33.422Z,39.10
2024-03-01T07:33:33.568Z,40.30
2024-03-01T07:34:33.878Z,38.30
2024-03-01T07:35:33.953Z,38.90
2024-03-01T07:36:34.058Z,39.30
2024-03-01T07:37:34.339Z,38.60
2024-03-01T07:38:34.414Z,38.30
2024-03-01T07:39:34.622Z,38.10
2024-03-01T07:40:34.880Z,40.00
2024-03-01T07:41:34.914Z,39.20
2024-03-01T07:42:35.110Z,39.20
2024-03-01T07:43:35.468Z,38.80
2024-03-01T07:44:35.513Z,39.20
2024-03-01T07:45:35.687Z,40.40
2024-03-01T07:46:37.140Z,38.10
2024-03-01T07:47:36.013Z,39.50
2024-03-01T07:48:36.211Z,39.40
2024-03-01T07:49:36.360Z,38.10
2024-03-01T07:50:36.581Z,38.30
2024-03-01T07:51:36.663Z,37.40
2024-03-01T07:52:36.870Z,37.90
2024-03-01T07:53:37.043Z,38.70
2024-03-01T07:54:37.176Z,37.40
2024-03-01T07:55:38.664Z,38.30
2024-03-01T07:56:37.569Z,37.20
2024-03-01T07:57:37.657Z,38.30
2024-03-01T07:58:38.231Z,37.40
2024-03-01T07:59:38.110Z,37.90
2024-03-01T08:00:38.214Z,35.60
2024-03-01T08:01:38.447Z,37.90
2024-03-01T08:02:38.559Z,37.60
2024-03-01T08:03:38.669Z,37.40
2024-03-01T08:04:38.880Z,38.00
2024-03-01T08:05:38.993Z,37.20
2024-03-01T08:06:39.208Z,38.50
2024-03-01T08:07:39.427Z,35.60
2024-03-01T08:08:39.513Z,36.40
2024-03-01T08:09:39.666Z,37.00
2024-03-01T08:10:39.913Z,38.20
2024-03-01T08:11:40.250Z,37.20
2024-03-01T08:12:40.180Z,38.80
2024-03-01T08:13:40.413Z,38.00
2024-03-01T08:14:40.524Z,76.60
2024-03-01T08:15:40.726Z,87.60
2024-03-01T08:16:40.981Z,56.30
2024-03-01T08:17:41.096Z,37.70
2024-03-01T08:18:41.412Z,33.80
2024-03-01T08:19:41.498Z,40.60
2024-03-01T08:20:41.625Z,32.20
2024-03-01T08:21:41.785Z,33.10
2024-03-01T08:22:42.037Z,32.90
2024-03-01T08:23:42.089Z,32.90
2024-03-01T08:24:42.245Z,32.40
2024-03-01T08:25:42.577Z,32.40
2024-03-01T08:26:42.653Z,31.50
2024-03-01T08:27:42.834Z,32.20
2024-03-01T08:28:42.965Z,32.20
2024-03-01T08:29:43.088Z,32.10
2024-03-01T08:30:43.293Z,32.70
2024-03-01T08:31:43.487Z,31.40
2024-03-01T08:32:43.636Z,31.40
2024-03-01T08:33:43.796Z,31.30
2024-03-01T08:34:44.075Z,30.50
2024-03-01T08:35:44.127Z,30.10
2024-03-01T08:36:44.309Z,29.80
2024-03-01T08:37:44.569Z,30.10
2024-03-01T08:38:44.878Z,29.60
2024-03-01T08:39:44.864Z,29.80
2024-03-01T08:40:45.089Z,28.30
2024-03-01T08:41:45.207Z,29.60
2024-03-01T08:42:45.407Z,28.70
2024-03-01T08:43:45.598Z,29.50
2024-03-01T08:44:45.758Z,28.50
2024-03-01T08:45:45.900Z,28.70
2024-03-01T08:46:46.127Z,28.60
2024-03-01T08:47:46.264Z,27.90
2024-03-01T08:48:46.434Z,27.40
2024-03-01T08:49:46.606Z,27.40
2024-03-01T08:50:46.753Z,26.60
2024-03-01T08:51:46.907Z,26.70
2024-03-01T08:52:47.104Z,27.70
2024-03-01T08:53:47.231Z,27.80
2024-03-01T08:54:47.480Z,27.90
2024-03-01T08:55:47.649Z,25.90
2024-03-01T08:56:47.797Z,26.10
2024-03-01T08:57:47.938Z,26.90
2024-03-01T08:58:48.250Z,27.70
2024-03-01T08:59:48.323Z,27.20
2024-03-01T09:00:48.488Z,28.00
2024-03-01T09:01:48.805Z,27.20
2024-03-01T09:02:48.790Z,27.40
2024-03-01T09:03:48.935Z,27.60
2024-03-01T09:04:49.151Z,27.50
2024-03-01T09:05:49.294Z,26.00
2024-03-01T09:06:49.478Z,27.30
2024-03-01T09:07:49.638Z,26.00
2024-03-01T09:08:49.812Z,27.70
2024-03-01T09:09:49.976Z,26.10
2024-03-01T09:10:50.232Z,26.20
2024-03-01T09:11:50.299Z,26.80
2024-03-01T09:12:50.509Z,25.80
2024-03-01T09:13:50.629Z,25.50
2024-03-01T09:14:50.888Z,24.60
2024-03-01T09:15:51.015Z,25.20
2024-03-01T09:16:51.168Z,25.70
2024-03-01T09:17:51.334Z,25.50
2024-03-01T09:18:51.528Z,25.50
2024-03-01T09:19:51.718Z,25.10
2024-03-01T09:20:51.898Z,24.80
2024-03-01T09:21:52.034Z,24.90
2024-03-01T09:22:52.215Z,25.60
2024-03-01T09:23:52.516Z,37.50
2024-03-01T09:24:52.566Z,26.10
2024-03-01T09:25:52.727Z,24.60
2024-03-01T09:26:52.903Z,24.50
2024-03-01T09:27:53.207Z,23.80
2024-03-01T09:28:53.299Z,24.20
2024-03-01T09:29:53.396Z,24.50
2024-03-01T09:30:53.759Z,24.00
2024-03-01T09:31:53.803Z,24.00
2024-03-01T09:32:53.983Z,24.70
2024-03-01T09:33:54.090Z,24.50
2024-03-01T09:34:54.267Z,22.90
2024-03-01T09:35:54.437Z,23.40
2024-03-01T09:36:54.630Z,23.80
2024-03-01T09:37:54.773Z,24.00
2024-03-01T09:38:54.923Z,24.30
2024-03-01T09:39:55.158Z,22.40
2024-03-01T09:40:55.314Z,23.70
2024-03-01T09:41:55.412Z,23.90
2024-03-01T09:42:55.864Z,23.90
2024-03-01T09:43:55.760Z,23.60
2024-03-01T09:44:55.999Z,25.10
2024-03-01T09:45:56.239Z,23.50
2024-03-01T09:46:56.281Z,23.00
2024-03-01T09:47:56.471Z,22.70
2024-03-01T09:48:56.625Z,22.90
2024-03-01T09:49:56.772Z,23.40
2024-03-01T09:50:56.961Z,22.30
2024-03-01T09:51:57.156Z,22.40
2024-03-01T09:52:57.291Z,22.40
2024-03-01T09:53:57.464Z,22.10
2024-03-01T09:54:57.651Z,23.30
2024-03-01T09:55:57.832Z,22.20
2024-03-01T09:56:57.991Z,22.50
2024-03-01T09:57:58.199Z,22.20
2024-03-01T09:58:58.317Z,22.30
2024-03-01T09:59:58.535Z,21.10
2024-03-01T10:00:58.771Z,21.10
2024-03-01T10:01:58.859Z,21.50
2024-03-01T10:02:59.011Z,21.00
2024-03-01T10:03:59.218Z,22.80
2024-03-01T10:04:59.351Z,21.00
2024-03-01T10:06:02.791Z,20.80
2024-03-01T10:07:00.768Z,20.80
2024-03-01T10:07:59.860Z,22.00
2024-03-01T10:09:00.030Z,21.20
2024-03-01T10:10:00.358Z,20.70
2024-03-01T10:11:00.520Z,21.90
2024-03-01T10:12:00.557Z,22.70
2024-03-01T10:13:00.778Z,21.80
2024-03-01T10:14:00.884Z,22.10
2024-03-01T10:15:01.065Z,21.40
2024-03-01T10:16:01.345Z,22.40
2024-03-01T10:17:01.458Z,22.00
2024-03-01T10:18:01.632Z,22.40
2024-03-01T10:19:01.796Z,21.80
2024-03-01T10:20:01.910Z,22.40
2024-03-01T10:21:02.162Z,21.20
2024-03-01T10:22:02.296Z,21.60
2024-03-01T10:23:02.464Z,21.10
2024-03-01T10:24:02.601Z,22.30
2024-03-01T10:25:02.935Z,21.70
2024-03-01T10:26:03.132Z,21.70
2024-03-01T10:27:03.144Z,21.60
2024-03-01T10:28:03.338Z,21.90
2024-03-01T10:29:03.475Z,20.60
2024-03-01T10:30:03.704Z,20.50
2024-03-01T10:31:03.926Z,20.50
2024-03-01T10:32:04.011Z,21.50
2024-03-01T10:33:04.238Z,20.40
2024-03-01T10:34:04.392Z,20.40
2024-03-01T10:35:04.599Z,20.20
2024-03-01T10:36:04.696Z,20.10
2024-03-01T10:37:04.937Z,20.00
2024-03-01T10:38:05.054Z,20.30
2024-03-01T10:39:05.232Z,19.80
2024-03-01T10:40:05.454Z,20.30
2024-03-01T10:41:11.717Z,20.10
2024-03-01T10:42:06.753Z,22.40
2024-03-01T10:43:06.015Z,23.30
2024-03-01T10:44:06.139Z,23.30
2024-03-01T10:45:06.296Z,22.30
2024-03-01T10:46:06.557Z,22.40
2024-03-01T10:47:08.763Z,22.30
2024-03-01T10:48:06.788Z,25.00
2024-03-01T10:49:06.957Z,23.20
2024-03-01T10:50:07.145Z,23.40
2024-03-01T10:51:07.309Z,23.50
2024-03-01T10:52:07.478Z,23.30
2024-03-01T10:53:07.611Z,23.40
2024-03-01T10:54:07.768Z,23.20
2024-03-01T10:55:08.073Z,22.00
2024-03-01T10:56:08.106Z,22.80
2024-03-01T10:57:08.316Z,23.50
2024-03-01T10:58:08.523Z,23.10
2024-03-01T10:59:08.618Z,23.20
2024-03-01T11:00:08.820Z,21.80
2024-03-01T11:01:09.124Z,22.60
2024-03-01T11:02:09.211Z,22.80
2024-03-01T11:03:09.351Z,21.40
2024-03-01T11:04:09.536Z,22.20
2024-03-01T11:05:09.693Z,22.80
2024-03-01T11:06:09.840Z,21.60
2024-03-01T11:07:10.052Z,23.40
2024-03-01T11:08:10.191Z,22.50
2024-03-01T11:09:10.362Z,23.00
2024-03-01T11:10:10.531Z,22.80
2024-03-01T11:11:10.699Z,23.10
2024-03-01T11:12:10.845Z,23.30
2024-03-01T11:13:11.085Z,21.70
2024-03-01T11:14:11.204Z,22.20
2024-03-01T11:15:11.361Z,22.00
2024-03-01T11:16:11.636Z,22.50
2024-03-01T11:17:11.722Z,23.10
2024-03-01T11:18:11.920Z,22.40
2024-03-01T11:19:12.156Z,22.30
2024-03-01T11:20:12.340Z,22.60
2024-03-01T11:21:12.412Z,23.50
2024-03-01T11:22:12.540Z,22.90
2024-03-01T11:23:12.706Z,23.20
2024-03-01T11:24:12.866Z,23.10
2024-03-01T11:25:13.041Z,22.90
2024-03-01T11:26:13.240Z,23.90
2024-03-01T11:27:13.352Z,24.70
2024-03-01T11:28:13.599Z,24.10
2024-03-01T11:29:13.665Z,24.40
2024-03-01T11:30:13.844Z,23.70
2024-03-01T11:31:14.022Z,24.10
2024-03-01T11:32:15.703Z,24.10
2024-03-01T11:33:14.423Z,25.60
2024-03-01T11:34:14.615Z,25.40
2024-03-01T11:35:14.806Z,25.20
2024-03-01T11:36:14.870Z,23.90
2024-03-01T11:37:15.078Z,24.70
2024-03-01T11:38:15.262Z,24.00
2024-03-01T11:39:15.406Z,24.70
2024-03-01T11:40:15.594Z,26.00
2024-03-01T11:41:15.716Z,23.40
2024-03-01T11:42:17.698Z,22.60
2024-03-01T11:43:16.134Z,24.50
2024-03-01T11:44:16.211Z,22.30
2024-03-01T11:45:16.354Z,22.30
2024-03-01T11:46:16.598Z,22.30
2024-03-01T11:47:16.745Z,21.80
2024-03-01T11:48:16.904Z,21.70
2024-03-01T11:49:17.195Z,21.10
2024-03-01T11:50:17.257Z,21.60
2024-03-01T11:51:17.404Z,22.10
2024-03-01T11:52:17.628Z,21.50
2024-03-01T11:53:17.746Z,22.70
2024-03-01T11:54:17.936Z,21.30
2024-03-01T11:55:18.094Z,22.10
2024-03-01T11:56:18.306Z,21.90
2024-03-01T11:57:18.482Z,22.40
2024-03-01T11:58:18.690Z,24.10
2024-03-01T11:59:18.835Z,23.10
2024-03-01T12:00:18.963Z,23.20
2024-03-01T12:01:19.213Z,23.90
2024-03-01T12:02:19.519Z,23.20
2024-03-01T12:03:19.471Z,23.10
2024-03-01T12:04:19.761Z,22.50
2024-03-01T12:05:19.799Z,22.70
2024-03-01T12:06:19.988Z,22.60
2024-03-01T12:07:20.251Z,22.70
2024-03-01T12:08:20.370Z,22.40
2024-03-01T12:09:20.548Z,23.60
2024-03-01T12:10:20.794Z,23.00
2024-03-01T12:11:20.985Z,24.60
2024-03-01T12:12:21.103Z,23.90
2024-03-01T12:13:21.267Z,24.20
2024-03-01T12:14:21.469Z,24.20
2024-03-01T12:15:21.651Z,23.40
2024-03-01T12:16:21.867Z,24.40
2024-03-01T12:17:22.011Z,24.10
2024-03-01T12:18:22.132Z,24.20
2024-03-01T12:19:22.321Z,23.60
2024-03-01T12:20:22.475Z,25.00
2024-03-01T12:21:22.642Z,24.70
2024-03-01T12:22:22.863Z,25.40
2024-03-01T12:23:22.991Z,24.30
2024-03-01T12:24:23.142Z,24.20
2024-03-01T12:25:23.304Z,24.20
2024-03-01T12:26:23.493Z,24.30
2024-03-01T12:27:23.669Z,23.20
2024-03-01T12:28:25.700Z,24.50
2024-03-01T12:29:23.986Z,24.30
2024-03-01T12:30:24.207Z,24.60
2024-03-01T12:31:24.360Z,24.80
2024-03-01T12:32:24.523Z,23.40
2024-03-01T12:33:24.702Z,22.90
2024-03-01T12:34:24.858Z,24.40
2024-03-01T12:35:25.008Z,23.50
2024-03-01T12:36:25.421Z,23.60
2024-03-01T12:37:25.555Z,23.20
2024-03-01T12:38:25.541Z,22.50
2024-03-01T12:39:25.711Z,22.40
2024-03-01T12:40:25.915Z,23.20
2024-03-01T12:41:26.031Z,22.70
2024-03-01T12:42:26.241Z,22.20
2024-03-01T12:43:33.986Z,22.20
2024-03-01T12:44:27.562Z,21.20
2024-03-01T12:45:26.724Z,21.50
2024-03-01T12:46:26.920Z,21.80
2024-03-01T12:47:27.080Z,20.80
2024-03-01T12:48:27.244Z,22.20
2024-03-01T12:49:27.469Z,21.10
2024-03-01T12:50:27.589Z,21.70
2024-03-01T12:51:27.711Z,22.10
2024-03-01T12:52:27.974Z,22.30
2024-03-01T12:53:28.042Z,23.30
2024-03-01T12:54:28.236Z,23.30
2024-03-01T12:55:28.432Z,23.90